Main page
METAR-TAF:

METAR-TAF

Airports :

Clarion Municipal Airport

Clarion, Iowa, United States

latitude: 42-45N, longitude: 093-46W, elevation: 1161 ft

Current weather observation

The report was made 23 minutes ago, at 07:55 UTC
Wind 23 mph from the Southeast with gusts up to 30 mph
Temperature 66°F
Humidity 88%
Pressure 29.61 in. Hg
Visibility: 10 miles
Broken clouds at a height of 4300 ft
Overcast at a height of 4900 ft

METAR: KCAV 240755Z AUTO 14020G26KT 10SM BKN043 OVC049 19/17 A2961 RMK A01 P0003

Time: 03:18 (08:18 UTC)


TAF: missing

Weather observations and forecasts of more than 4000 airports (METAR and TAF reports).

The available stations are represented by yellow and red dots on the map.

Hover mouse over dot to see the name of the station.

Then click to see weather observations and forecasts.

To change the map : click on the green buttons with a black cross to zoom in, on the green button with a dash to zoom out, or on the green arrows for adjacent maps.


METAR-TAF: